createdAt,value
2019-06-07T00:04:26.594Z,101139.59
2019-06-07T00:09:29.310Z,101145.82
2019-06-07T00:14:32.072Z,101148.63
2019-06-07T00:19:35.002Z,101139.27
2019-06-07T00:24:37.745Z,101143.91
2019-06-07T00:29:40.464Z,101136.47
2019-06-07T00:34:43.206Z,101136.89
2019-06-07T00:39:45.922Z,101143.16
2019-06-07T00:44:48.694Z,101137.59
2019-06-07T00:49:51.428Z,101129.09
2019-06-07T00:54:54.173Z,101131.78
2019-06-07T00:59:56.878Z,101143.95
2019-06-07T01:04:59.606Z,101142.27
2019-06-07T01:10:02.449Z,101135.06
2019-06-07T01:15:07.596Z,101123.12
2019-06-07T01:20:11.320Z,101115.77
2019-06-07T01:25:15.637Z,101126.35
2019-06-07T01:30:22.770Z,101122.93
2019-06-07T01:35:25.477Z,101121.83
2019-06-07T01:40:32.246Z,101117.73
2019-06-07T01:45:33.236Z,101121.45
2019-06-07T01:50:35.986Z,101119.92
2019-06-07T01:55:38.712Z,101108.82
2019-06-07T02:00:41.439Z,101105.77
2019-06-07T02:05:44.156Z,101093.71
2019-06-07T02:10:46.865Z,101092.45
2019-06-07T02:15:49.579Z,101096.52
2019-06-07T02:20:52.293Z,101097.63
2019-06-07T02:25:55.098Z,101092.33
2019-06-07T02:31:00.573Z,101085.95
2019-06-07T02:36:02.596Z,101069.91
2019-06-07T02:41:05.403Z,101067.80
2019-06-07T02:46:30.556Z,101076.45
2019-06-07T02:51:32.745Z,101068.20
2019-06-07T02:56:44.466Z,101056.73
2019-06-07T03:01:41.339Z,101065.34
2019-06-07T03:06:44.017Z,101067.84
2019-06-07T03:11:51.126Z,101064.80
2019-06-07T03:17:03.356Z,101072.89
2019-06-07T03:22:06.152Z,101069.55
2019-06-07T03:27:34.973Z,101068.15
2019-06-07T03:32:13.547Z,101066.47
2019-06-07T03:37:16.295Z,101057.91
2019-06-07T03:42:19.023Z,101063.11
2019-06-07T03:47:24.005Z,101072.73
2019-06-07T03:52:27.456Z,101077.81
2019-06-07T03:57:46.334Z,101077.73
2019-06-07T04:02:38.619Z,101084.07
2019-06-07T04:07:44.187Z,101093.15
2019-06-07T04:12:44.703Z,101087.60
2019-06-07T04:18:01.460Z,101095.36
2019-06-07T04:22:53.746Z,101099.58
2019-06-07T04:27:56.616Z,101089.62
2019-06-07T04:32:59.507Z,100991.85
2019-06-07T04:38:02.321Z,101097.39
2019-06-07T04:43:06.139Z,101095.27
2019-06-07T04:48:09.096Z,101095.34
2019-06-07T04:53:11.849Z,101094.87
2019-06-07T04:58:14.576Z,101106.94
2019-06-07T05:03:17.330Z,101106.99
2019-06-07T05:08:28.231Z,101110.97
2019-06-07T05:13:24.738Z,101088.80
2019-06-07T05:18:36.348Z,101097.98
2019-06-07T05:24:05.942Z,101098.53
2019-06-07T05:28:49.104Z,101103.98
2019-06-07T05:34:03.033Z,101093.01
2019-06-07T05:39:07.857Z,101095.88
2019-06-07T05:44:13.085Z,101099.91
2019-06-07T05:49:16.032Z,101095.68
2019-06-07T05:54:18.814Z,101090.08
2019-06-07T05:59:21.616Z,101080.13
2019-06-07T06:04:24.332Z,101085.73
2019-06-07T06:09:27.501Z,101082.88
2019-06-07T06:14:30.426Z,101069.41
2019-06-07T06:19:33.143Z,101067.01
2019-06-07T06:24:37.178Z,101055.17
2019-06-07T06:29:41.822Z,101056.30
2019-06-07T06:34:49.353Z,101063.38
2019-06-07T06:39:50.921Z,101066.66
2019-06-07T06:44:54.300Z,101057.37
2019-06-07T06:49:58.511Z,101062.15
2019-06-07T06:55:01.632Z,101066.53
2019-06-07T07:00:08.083Z,101072.56
2019-06-07T07:05:11.674Z,101060.14
2019-06-07T07:10:24.847Z,101073.58
2019-06-07T07:15:27.806Z,101065.09
2019-06-07T07:20:30.514Z,101062.84
2019-06-07T07:25:33.240Z,101060.86
2019-06-07T07:30:44.574Z,101059.41
2019-06-07T07:36:14.019Z,101058.33
2019-06-07T07:41:15.095Z,101043.53
2019-06-07T07:46:03.052Z,101027.63
2019-06-07T07:51:03.384Z,101031.38
2019-06-07T07:56:06.777Z,101027.56
2019-06-07T08:01:11.254Z,101017.91
2019-06-07T08:06:14.243Z,101015.58
2019-06-07T08:11:16.962Z,101014.62
2019-06-07T08:16:19.758Z,101005.89
2019-06-07T08:21:26.560Z,100995.98
2019-06-07T08:26:29.058Z,100997.88
2019-06-07T08:31:31.770Z,100986.78
2019-06-07T08:36:42.003Z,100986.45
2019-06-07T08:41:54.159Z,100999.13
2019-06-07T08:46:45.038Z,100983.26
2019-06-07T08:51:47.769Z,100974.54
2019-06-07T08:56:53.628Z,100966.59
2019-06-07T09:01:59.724Z,100961.14
2019-06-07T09:07:09.103Z,100956.98
2019-06-07T09:12:10.704Z,100951.85
2019-06-07T09:17:12.320Z,100950.24
2019-06-07T09:22:14.477Z,100942.70
2019-06-07T09:27:17.308Z,100933.65
2019-06-07T09:32:20.031Z,100925.91
2019-06-07T09:38:03.517Z,100921.73
2019-06-07T09:42:27.520Z,100920.40
2019-06-07T09:47:32.793Z,100911.82
2019-06-07T09:52:57.340Z,100905.81
2019-06-07T09:57:42.059Z,100902.80
2019-06-07T10:02:44.917Z,100897.94
2019-06-07T10:08:02.327Z,100898.27
2019-06-07T10:12:53.696Z,100878.56
2019-06-07T10:17:56.461Z,100876.31
2019-06-07T10:22:59.543Z,100872.77
2019-06-07T10:28:03.720Z,100857.29
2019-06-07T10:33:07.023Z,100851.52
2019-06-07T10:38:10.725Z,100841.97
2019-06-07T10:43:14.522Z,100842.39
2019-06-07T10:48:17.618Z,100831.72
2019-06-07T10:53:20.349Z,100816.53
2019-06-07T10:58:23.114Z,100810.80
2019-06-07T11:03:25.852Z,100805.42
2019-06-07T11:08:28.582Z,100803.08
2019-06-07T11:13:31.484Z,100795.47
2019-06-07T11:18:34.202Z,100789.94
2019-06-07T11:23:37.023Z,100779.25
2019-06-07T11:28:39.841Z,100785.20
2019-06-07T11:33:42.573Z,100774.98
2019-06-07T11:38:45.391Z,100761.61
2019-06-07T11:43:48.130Z,100763.57
2019-06-07T11:48:50.913Z,100760.04
2019-06-07T11:53:53.700Z,100747.17
2019-06-07T11:58:56.494Z,100742.08
2019-06-07T12:03:59.315Z,100722.95
2019-06-07T12:09:02.045Z,100712.56
2019-06-07T12:14:05.336Z,100700.92
2019-06-07T12:19:09.544Z,100699.47
2019-06-07T12:24:12.521Z,100697.39
2019-06-07T12:29:15.263Z,100700.12
2019-06-07T12:34:17.984Z,100682.59
2019-06-07T12:39:20.732Z,100673.24
2019-06-07T12:44:23.461Z,100670.03
2019-06-07T12:49:26.173Z,100658.64
2019-06-07T12:54:28.915Z,100650.27
2019-06-07T12:59:31.644Z,100657.98
2019-06-07T13:04:34.363Z,100649.78
2019-06-07T13:09:37.084Z,100643.31
2019-06-07T13:14:39.809Z,100637.88
2019-06-07T13:19:42.552Z,100624.64
2019-06-07T13:24:45.274Z,100612.81
2019-06-07T13:29:48.006Z,100612.78
2019-06-07T13:34:50.759Z,100589.05
2019-06-07T13:39:53.482Z,100581.77
2019-06-07T13:44:56.278Z,100580.66
2019-06-07T13:49:59.100Z,100580.87
2019-06-07T13:55:02.475Z,100559.07
2019-06-07T14:00:10.850Z,100544.30
2019-06-07T14:05:13.998Z,100534.90
2019-06-07T14:10:16.744Z,100524.98
2019-06-07T14:15:20.525Z,100518.41
2019-06-07T14:20:26.756Z,100513.92
2019-06-07T14:25:29.371Z,100501.64
2019-06-07T14:30:32.749Z,100497.70
2019-06-07T14:35:35.571Z,100486.66
2019-06-07T14:40:40.133Z,100485.45
2019-06-07T14:45:42.902Z,100472.78
2019-06-07T14:50:45.649Z,100462.53
2019-06-07T14:55:48.374Z,100454.81
2019-06-07T15:00:51.084Z,100445.52
2019-06-07T15:05:53.882Z,100442.84
2019-06-07T15:10:56.654Z,100441.04
2019-06-07T15:15:59.367Z,100439.53
2019-06-07T15:21:02.424Z,100440.16
2019-06-07T15:26:05.217Z,100439.01
2019-06-07T15:31:07.945Z,100438.63
2019-06-07T15:36:10.667Z,100435.77
2019-06-07T15:41:13.374Z,100417.48
2019-06-07T15:46:16.157Z,100401.83
2019-06-07T15:51:18.940Z,100383.70
2019-06-07T15:56:21.656Z,100387.55
2019-06-07T16:01:24.369Z,100404.39
2019-06-07T16:06:27.102Z,100410.55
2019-06-07T16:11:30.356Z,100411.33
2019-06-07T16:16:33.096Z,100409.63
2019-06-07T16:21:35.827Z,100407.78
2019-06-07T16:26:38.548Z,100399.78
2019-06-07T16:31:41.261Z,100400.67
2019-06-07T16:36:44.508Z,100408.39
2019-06-07T16:41:48.954Z,100413.27
2019-06-07T16:46:51.770Z,100418.31
2019-06-07T16:52:02.573Z,100414.80
2019-06-07T16:57:05.305Z,100398.83
2019-06-07T17:02:08.014Z,100392.08
2019-06-07T17:07:10.727Z,100387.81
2019-06-07T17:12:13.441Z,100392.98
2019-06-07T17:17:17.081Z,100391.73
2019-06-07T17:22:19.878Z,100390.89
2019-06-07T17:27:22.622Z,100385.13
2019-06-07T17:32:25.362Z,100380.25
2019-06-07T17:37:28.160Z,100372.94
2019-06-07T17:42:30.900Z,100368.38
2019-06-07T17:47:33.616Z,100345.84
2019-06-07T17:52:36.329Z,100328.06
2019-06-07T17:57:39.061Z,100338.56
2019-06-07T18:02:42.632Z,100355.67
2019-06-07T18:07:50.055Z,100354.94
2019-06-07T18:12:53.042Z,100346.88
2019-06-07T18:17:56.958Z,100332.03
2019-06-07T18:23:03.940Z,100344.85
2019-06-07T18:28:07.048Z,100350.80
2019-06-07T18:33:09.791Z,100360.62
2019-06-07T18:38:12.503Z,100372.05
2019-06-07T18:43:15.222Z,100385.27
2019-06-07T18:48:17.926Z,100380.55
2019-06-07T18:53:20.659Z,100380.56
2019-06-07T18:58:23.398Z,100410.47
2019-06-07T19:03:26.117Z,100406.36
2019-06-07T19:08:28.927Z,100407.64
2019-06-07T19:13:31.985Z,100448.77
2019-06-07T19:18:34.710Z,100577.88
2019-06-07T19:23:37.445Z,100567.59
2019-06-07T19:28:40.194Z,100562.47
2019-06-07T19:33:49.158Z,100511.19
2019-06-07T19:38:47.567Z,100624.37
2019-06-07T19:43:50.334Z,100676.83
2019-06-07T19:48:54.488Z,100687.78
2019-06-07T19:53:57.709Z,100678.90
2019-06-07T19:59:01.704Z,100691.59
2019-06-07T20:04:04.668Z,100697.19
2019-06-07T20:09:07.595Z,100720.53
2019-06-07T20:14:10.535Z,100747.57
2019-06-07T20:19:13.303Z,100751.78
2019-06-07T20:24:26.471Z,100760.38
2019-06-07T20:29:25.720Z,100765.53
2019-06-07T20:34:25.655Z,100752.07
2019-06-07T20:39:28.633Z,100751.80
2019-06-07T20:44:31.440Z,100755.53
2019-06-07T20:49:34.531Z,100745.32
2019-06-07T20:54:37.388Z,100694.05
2019-06-07T20:59:40.372Z,100666.48
2019-06-07T21:11:07.795Z,100713.62
2019-06-07T21:16:10.734Z,100720.38
2019-06-07T21:21:13.587Z,100781.93
2019-06-07T21:26:16.463Z,100768.94
2019-06-07T21:31:19.336Z,100735.52
2019-06-07T21:36:22.111Z,100727.58
2019-06-07T21:41:24.896Z,100804.91
2019-06-07T21:46:27.763Z,100753.70
2019-06-07T21:51:30.676Z,100703.78
2019-06-07T21:56:33.587Z,100669.92
2019-06-07T22:01:36.873Z,100693.03
2019-06-07T22:06:39.902Z,100737.98
2019-06-07T22:11:42.926Z,100679.16
2019-06-07T22:16:46.377Z,100691.48
2019-06-07T22:22:02.119Z,100696.58
2019-06-07T22:26:54.509Z,100644.58
2019-06-07T22:32:00.080Z,100688.19
2019-06-07T22:37:23.634Z,100715.18
2019-06-07T22:42:28.938Z,100719.16
2019-06-07T22:47:38.032Z,100745.14
2019-06-07T22:52:42.220Z,100760.11
2019-06-07T22:57:58.296Z,100761.76
2019-06-07T23:03:01.030Z,100751.59
2019-06-07T23:08:05.346Z,100757.23
2019-06-07T23:13:09.859Z,100769.66
2019-06-07T23:18:13.460Z,100783.10
2019-06-07T23:23:17.305Z,100782.34
2019-06-07T23:34:46.094Z,100790.03
2019-06-07T23:39:49.513Z,100755.80
2019-06-07T23:44:52.369Z,100759.66
2019-06-07T23:49:58.081Z,100776.58
2019-06-07T23:55:00.896Z,100840.45
